Decoded Metar for KMSS (MASSENA in NY, USA) (IATA:MSS) | Meteo·Mobile Aviation Weather
aviador You're here:

KMSS Decoded Metar

MASSENA in NY, USA
Report Time2020-02-23 09:53:00
UTC Time2020-02-23 10:34:16
Flight Rules vfr VFR
Wind220° at 09 kt
W.Decomp.*RWY 23: 9.0 kt HW 0.6 kt RCW
RWY 27: 7.3 kt HW 5.3 kt LCW
Visibility9999 m
Phenomena:N/A
Clouds:N/A
Expected CloudBase > 2,000 ft AGL from Temp-Dew spread
CeilingNone
Temp-1°C (ISA -16)
Dew Point-6°C (69% RH)
AAT-6.9°C
QNH1018 hPa
Density Alt-1,804 ft
Elevation217 ft
Report Wrong Elevation
Raw Report
KMSS 230953Z AUTO 22009KT 10SM CLR M01/M06 A3006 RMK AO2 SLP185
T10111056=

Extra information for KMSS:More info

Metar Taf Metar & Taf Last 4 Metars F.Rules Stats Wind Profile Meteogram Temp Stats Airport Information Weather charts Add Link Nearby VenuesMetar ALERT Operation Metar Decoded Social comments

AIRNAV info for KMSS